This is the latest recevied weather packets stored in our database for station/object HK3BJ-17. If no packets are shown the sender has not sent any weather packets the latest 10 day(s).
| Time | Temp. | Humidity | Pressure | Rain* | Wind** | Luminosity | Snow |
|---|---|---|---|---|---|---|---|
| 1787881988 | 10.56° C | 70% | 1019 hPa | 0 mm | - | - | - |
| 1787881044 | 11.11° C | 66% | 1019 hPa | 0 mm | - | - | - |
| 1787880086 | 11.67° C | 63% | 1018 hPa | 0 mm | - | - | - |
| 1787879132 | 11.67° C | 63% | 1018 hPa | 0 mm | - | - | - |
| 1787878190 | 11.67° C | 63% | 1018 hPa | 0 mm | - | - | - |
| 1787877249 | 12.22° C | 63% | 1018 hPa | 0 mm | - | - | - |
| 1787876277 | 12.78° C | 63% | 1016 hPa | 0 mm | - | - | - |
| 1787875327 | 13.89° C | 59% | 1016 hPa | 0 mm | - | - | - |
| 1787874385 | 13.89° C | 59% | 1016 hPa | 0 mm | - | - | - |
| 1787873438 | 13.89° C | 57% | 1016 hPa | 0 mm | - | - | - |
| 1787872480 | 13.89° C | 57% | 1014 hPa | 0 mm | - | - | - |
| 1787871531 | 13.89° C | 57% | 1014 hPa | 0 mm | - | - | - |
| 1787870558 | 14.44° C | 58% | 1014 hPa | 0 mm | - | - | - |
| 1787867602 | 15° C | 58% | 1012 hPa | 0 mm | - | - | - |
| 1787866621 | 15° C | 59% | 1012 hPa | 0 mm | - | - | - |
| 1787865673 | 15° C | 60% | 1011 hPa | 0 mm | - | - | - |
| 1787864725 | 15° C | 61% | 1011 hPa | 0 mm | - | - | - |
| 1787863773 | 15° C | 62% | 1011 hPa | 0 mm | - | - | - |
| 1787862816 | 15° C | 62% | 1011 hPa | 0 mm | - | - | - |
| 1787861873 | 15° C | 62% | 1011 hPa | 0 mm | - | - | - |
| 1787860925 | 15° C | 62% | 1011 hPa | 0 mm | - | - | - |
| 1787859977 | 15° C | 61% | 1011 hPa | 0 mm | - | - | - |
| 1787859038 | 15° C | 60% | 1012 hPa | 0 mm | - | - | - |
| 1787858090 | 15° C | 58% | 1012 hPa | 0 mm | - | - | - |
| 1787857147 | 15.56° C | 56% | 1012 hPa | 0 mm | - | - | - |
* Rain latest hour (hover to see other rain measurements)
** Current wind speed in m/s (hover to see current wind gust speed)